Time;durP1;ratioP1;P1;durP2;ratioP2;P2;SDS_P1;SDS_P2;PMS_P1;PMS_P2;Temp;Humidity;BMP_temperature;BMP_pressure;BME280_temperature;BME280_humidity;BME280_pressure;Samples;Min_cycle;Max_cycle;Signal;HPM_P1;HPM_P2
2022/11/12 00:02:00;;;;;;;;;;;;;;;6.53;91.75977;103207.7;;;;-77
2022/11/12 00:05:20;;;;;;;10;5.3;;;;;;;;;;;;;-77
2022/11/12 00:07:03;;;;;;;;;;;;;;;6.51;91.42871;103207.9;;;;-79
2022/11/12 00:12:00;;;;;;;;;;;;;;;6.48;91.41211;103204.2;;;;-80
2022/11/12 00:17:01;;;;;;;;;;;;;;;6.42;91.36621;103203.5;;;;-79
2022/11/12 00:22:03;;;;;;;;;;;;;;;6.39;91.38184;103198.5;;;;-80
2022/11/12 00:27:01;;;;;;;;;;;;;;;6.45;91.56836;103198.6;;;;-78
2022/11/12 00:32:01;;;;;;;;;;;;;;;6.43;91.61914;103199.3;;;;-78
2022/11/12 00:35:23;;;;;;;10.8;5.4;;;;;;;;;;;;;-79
2022/11/12 00:37:04;;;;;;;;;;;;;;;6.39;91.5459;103194.4;;;;-78
2022/11/12 00:42:00;;;;;;;;;;;;;;;6.37;91.81445;103194.6;;;;-79
2022/11/12 00:47:03;;;;;;;;;;;;;;;6.39;91.91699;103206;;;;-78
2022/11/12 00:52:00;;;;;;;;;;;;;;;6.34;91.68652;103200.4;;;;-79
2022/11/12 00:57:03;;;;;;;;;;;;;;;6.37;91.65137;103207.2;;;;-79
2022/11/12 01:02:00;;;;;;;;;;;;;;;6.33;91.82715;103199.9;;;;-79
2022/11/12 01:05:28;;;;;;;10.6;5.3;;;;;;;;;;;;;-80
2022/11/12 01:07:03;;;;;;;;;;;;;;;6.35;91.50293;103195.3;;;;-79
2022/11/12 01:12:00;;;;;;;;;;;;;;;6.29;91.79785;103188.4;;;;-79
2022/11/12 01:17:00;;;;;;;;;;;;;;;6.28;91.83887;103199.1;;;;-79
2022/11/12 01:22:00;;;;;;;;;;;;;;;6.37;91.76074;103198.5;;;;-79
2022/11/12 01:27:00;;;;;;;;;;;;;;;6.41;91.5498;103206.4;;;;-79
2022/11/12 01:32:00;;;;;;;;;;;;;;;6.46;91.63574;103202.9;;;;-78
2022/11/12 01:35:27;;;;;;;12.6;5.9;;;;;;;;;;;;;-79
2022/11/12 01:37:00;;;;;;;;;;;;;;;6.53;91.75977;103200.2;;;;-80
2022/11/12 01:42:00;;;;;;;;;;;;;;;6.63;91.62793;103206.5;;;;-79
2022/11/12 01:47:08;;;;;;;;;;;;;;;6.7;91.74219;103216.7;;;;-78
2022/11/12 01:52:03;;;;;;;;;;;;;;;6.75;92.1123;103209.9;;;;-79
2022/11/12 01:57:01;;;;;;;;;;;;;;;6.81;91.73242;103210.7;;;;-79
2022/11/12 02:02:03;;;;;;;;;;;;;;;6.87;92.06055;103220.4;;;;-78
2022/11/12 02:05:21;;;;;;;11.4;5.5;;;;;;;;;;;;;-79
2022/11/12 02:07:01;;;;;;;;;;;;;;;6.96;92.03613;103228;;;;-79
2022/11/12 02:12:01;;;;;;;;;;;;;;;7.01;92.06836;103214.2;;;;-79
2022/11/12 02:17:04;;;;;;;;;;;;;;;7.1;91.93457;103215.1;;;;-80
2022/11/12 02:22:01;;;;;;;;;;;;;;;7.15;91.89258;103207.5;;;;-79
2022/11/12 02:27:01;;;;;;;;;;;;;;;7.2;92.20703;103195.7;;;;-77
2022/11/12 02:32:02;;;;;;;;;;;;;;;7.26;92.27734;103199.5;;;;-79
2022/11/12 02:35:21;;;;;;;15.1;6.8;;;;;;;;;;;;;-79
2022/11/12 02:37:04;;;;;;;;;;;;;;;7.29;92.00879;103209;;;;-79
2022/11/12 02:42:01;;;;;;;;;;;;;;;7.36;92.05566;103200.7;;;;-78
2022/11/12 02:47:00;;;;;;;;;;;;;;;7.42;92.32031;103188.1;;;;-78
2022/11/12 02:52:00;;;;;;;;;;;;;;;7.49;92.0625;103192.1;;;;-78
2022/11/12 02:57:01;;;;;;;;;;;;;;;7.54;92.31348;103186.6;;;;-78
2022/11/12 03:02:03;;;;;;;;;;;;;;;7.59;92.30273;103174.8;;;;-79
2022/11/12 03:05:22;;;;;;;19.7;9.5;;;;;;;;;;;;;-78
2022/11/12 03:07:00;;;;;;;;;;;;;;;7.66;92.23926;103175.2;;;;-79
2022/11/12 03:12:01;;;;;;;;;;;;;;;7.71;92.4043;103172.7;;;;-79
2022/11/12 03:17:00;;;;;;;;;;;;;;;7.72;92.41504;103178;;;;-79
2022/11/12 03:22:02;;;;;;;;;;;;;;;7.76;92.33789;103171.2;;;;-78
2022/11/12 03:27:00;;;;;;;;;;;;;;;7.77;92.37402;103166.3;;;;-78
2022/11/12 03:32:02;;;;;;;;;;;;;;;7.83;92.32031;103169.5;;;;-79
2022/11/12 03:35:25;;;;;;;25;11.6;;;;;;;;;;;;;-81
2022/11/12 03:37:02;;;;;;;;;;;;;;;7.86;92.37012;103183.6;;;;-78
2022/11/12 03:42:07;;;;;;;;;;;;;;;7.87;92.37305;103189.9;;;;-79
2022/11/12 03:47:05;;;;;;;;;;;;;;;7.87;92.81152;103189.9;;;;-79
2022/11/12 03:52:00;;;;;;;;;;;;;;;7.9;92.89258;103181.5;;;;-78
2022/11/12 03:57:01;;;;;;;;;;;;;;;7.9;92.89453;103190.6;;;;-78
2022/11/12 04:02:00;;;;;;;;;;;;;;;7.9;92.85059;103190.6;;;;-79
2022/11/12 04:13:26;;;;;;;;;;;;;;;7.87;93.05273;103194.4;;;;-78
2022/11/12 04:22:17;;;;;;;;;;;;;;;7.86;92.89746;103191.6;;;;-78
2022/11/12 04:27:08;;;;;;;;;;;;;;;7.87;92.86426;103184.4;;;;-78
2022/11/12 04:32:09;;;;;;;;;;;;;;;7.85;92.93945;103184.9;;;;-78
2022/11/12 04:35:24;;;;;;;22.6;11.3;;;;;;;;;;;;;-79
2022/11/12 04:37:00;;;;;;;;;;;;;;;7.85;93.02637;103179.9;;;;-78
2022/11/12 04:47:05;;;;;;;;;;;;;;;7.84;93.02344;103182.1;;;;-80
2022/11/12 04:52:09;;;;;;;;;;;;;;;7.84;92.73828;103184.1;;;;-79
2022/11/12 04:57:03;;;;;;;;;;;;;;;7.84;93.14355;103189.8;;;;-79
2022/11/12 05:02:16;;;;;;;;;;;;;;;7.82;92.94238;103192;;;;-77
2022/11/12 05:05:22;;;;;;;25.9;12.3;;;;;;;;;;;;;-78
2022/11/12 05:07:19;;;;;;;;;;;;;;;7.82;93.24902;103193;;;;-78
2022/11/12 05:12:08;;;;;;;;;;;;;;;7.81;93.19043;103184.6;;;;-79
2022/11/12 05:17:02;;;;;;;;;;;;;;;7.84;93.54883;103185.2;;;;-78
2022/11/12 05:22:08;;;;;;;;;;;;;;;7.83;93.24219;103188;;;;-78
2022/11/12 05:27:05;;;;;;;;;;;;;;;7.84;93.31836;103174;;;;-79
2022/11/12 05:32:00;;;;;;;;;;;;;;;7.84;93.24219;103168.9;;;;-78
2022/11/12 05:35:24;;;;;;;32.5;14.7;;;;;;;;;;;;;-79
2022/11/12 05:37:00;;;;;;;;;;;;;;;7.84;92.87012;103164.2;;;;-79
2022/11/12 05:42:03;;;;;;;;;;;;;;;7.86;92.74414;103162.6;;;;-79
2022/11/12 05:47:00;;;;;;;;;;;;;;;7.87;92.4375;103162;;;;-80
2022/11/12 05:52:00;;;;;;;;;;;;;;;7.89;92.60547;103158.8;;;;-77
2022/11/12 06:02:03;;;;;;;;;;;;;;;7.89;92.48535;103161.4;;;;-78
2022/11/12 06:05:36;;;;;;;33.9;15;;;;;;;;;;;;;-79
2022/11/12 06:07:08;;;;;;;;;;;;;;;7.9;92.58789;103161.4;;;;-78
2022/11/12 06:12:05;;;;;;;;;;;;;;;7.91;92.57813;103165.9;;;;-78
2022/11/12 06:17:03;;;;;;;;;;;;;;;7.91;92.74316;103173.9;;;;-79
2022/11/12 06:22:04;;;;;;;;;;;;;;;7.92;92.61133;103163.3;;;;-78
2022/11/12 06:27:00;;;;;;;;;;;;;;;7.89;92.4541;103167.6;;;;-80
2022/11/12 06:32:00;;;;;;;;;;;;;;;7.87;92.54688;103170.6;;;;-79
2022/11/12 06:37:03;;;;;;;;;;;;;;;7.87;92.44824;103172.7;;;;-79
2022/11/12 06:42:05;;;;;;;;;;;;;;;7.87;92.53809;103177.3;;;;-79
2022/11/12 06:47:00;;;;;;;;;;;;;;;7.87;92.59277;103180;;;;-79
2022/11/12 06:52:03;;;;;;;;;;;;;;;7.89;92.59473;103190.9;;;;-79
2022/11/12 06:57:01;;;;;;;;;;;;;;;7.89;92.54199;103187.9;;;;-75
2022/11/12 07:02:06;;;;;;;;;;;;;;;7.91;92.44727;103193;;;;-74
2022/11/12 07:05:32;;;;;;;32.7;14.5;;;;;;;;;;;;;-75
2022/11/12 07:07:12;;;;;;;;;;;;;;;7.91;92.41406;103204.2;;;;-76
2022/11/12 07:12:19;;;;;;;;;;;;;;;7.91;92.2168;103221.9;;;;-75
2022/11/12 07:17:00;;;;;;;;;;;;;;;7.93;92.25391;103223.3;;;;-74
2022/11/12 07:22:00;;;;;;;;;;;;;;;7.95;92.49902;103223.5;;;;-74
2022/11/12 07:27:11;;;;;;;;;;;;;;;7.96;92.23926;103233.9;;;;-74
2022/11/12 07:32:28;;;;;;;;;;;;;;;8.08;92.27344;103229.1;;;;-74
2022/11/12 07:34:57;;;;;;;;;;;;;;;7.99;92.17773;103226.9;;;;-75
2022/11/12 07:35:30;;;;;;;31.6;13.4;;;;;;;;;;;;;-75
2022/11/12 07:40:05;;;;;;;;;;;;;;;8.02;92.46973;103232.2;;;;-76
2022/11/12 07:50:07;;;;;;;;;;;;;;;8.06;92.19336;103236.4;;;;-75
2022/11/12 07:54:57;;;;;;;;;;;;;;;8.09;92.47266;103232.2;;;;-79
2022/11/12 08:00:08;;;;;;;;;;;;;;;8.12;92.5332;103238.4;;;;-79
2022/11/12 08:04:57;;;;;;;;;;;;;;;8.16;92.22461;103233;;;;-80
2022/11/12 08:05:24;;;;;;;31.4;13.2;;;;;;;;;;;;;-77
2022/11/12 08:09:58;;;;;;;;;;;;;;;8.2;92.25488;103236.1;;;;-79
2022/11/12 08:14:56;;;;;;;;;;;;;;;8.22;92.18359;103235.7;;;;-79
2022/11/12 08:20:02;;;;;;;;;;;;;;;8.3;92.11133;103241.2;;;;-78
2022/11/12 08:24:59;;;;;;;;;;;;;;;8.34;92.2959;103228.8;;;;-79
2022/11/12 08:29:59;;;;;;;;;;;;;;;8.37;92.32617;103218.7;;;;-78
2022/11/12 08:34:57;;;;;;;;;;;;;;;8.4;92.37598;103229.8;;;;-78
2022/11/12 08:35:25;;;;;;;29.9;13.3;;;;;;;;;;;;;-79
2022/11/12 08:39:56;;;;;;;;;;;;;;;8.43;92.40332;103233.9;;;;-77
2022/11/12 08:44:58;;;;;;;;;;;;;;;8.48;92.18262;103236;;;;-78
2022/11/12 08:50:09;;;;;;;;;;;;;;;8.5;92.51758;103232.9;;;;-78
2022/11/12 09:00:10;;;;;;;;;;;;;;;8.57;92.4873;103239.4;;;;-79
2022/11/12 09:05:12;;;;;;;;;;;;;;;8.61;92.32129;103234.7;;;;-79
2022/11/12 09:05:49;;;;;;;28.2;13;;;;;;;;;;;;;-79
2022/11/12 09:10:05;;;;;;;;;;;;;;;8.65;92.38574;103242.2;;;;-78
2022/11/12 09:15:07;;;;;;;;;;;;;;;8.72;92.28711;103240.4;;;;-78
2022/11/12 09:20:04;;;;;;;;;;;;;;;8.79;92.14941;103237.6;;;;-79
2022/11/12 09:24:56;;;;;;;;;;;;;;;9;92.44824;103241.1;;;;-79
2022/11/12 09:29:56;;;;;;;;;;;;;;;9.15;91.81738;103233.5;;;;-75
2022/11/12 09:34:56;;;;;;;;;;;;;;;9.22;91.4834;103230.8;;;;-74
2022/11/12 09:35:26;;;;;;;34;14.9;;;;;;;;;;;;;-75
2022/11/12 09:39:56;;;;;;;;;;;;;;;9.26;91.20508;103233.9;;;;-73
2022/11/12 09:45:00;;;;;;;;;;;;;;;9.27;91.12109;103240.1;;;;-75
2022/11/12 09:50:05;;;;;;;;;;;;;;;9.31;91.16113;103244.8;;;;-74
2022/11/12 09:55:12;;;;;;;;;;;;;;;9.33;91.09668;103248.4;;;;-75
2022/11/12 09:59:57;;;;;;;;;;;;;;;9.37;90.74219;103238.2;;;;-75
2022/11/12 10:05:08;;;;;;;;;;;;;;;9.43;90.83203;103235.6;;;;-75
2022/11/12 10:05:38;;;;;;;31.3;15.3;;;;;;;;;;;;;-75
2022/11/12 10:10:04;;;;;;;;;;;;;;;9.54;91.06543;103241.8;;;;-75
2022/11/12 10:24:58;;;;;;;;;;;;;;;9.92;89.73535;103233.1;;;;-72
2022/11/12 10:30:01;;;;;;;;;;;;;;;10.02;89.26953;103229.5;;;;-77
2022/11/12 10:34:56;;;;;;;;;;;;;;;10.14;88.5127;103226.6;;;;-77
2022/11/12 10:35:27;;;;;;;27.1;14.2;;;;;;;;;;;;;-76
2022/11/12 10:39:56;;;;;;;;;;;;;;;10.21;87.9209;103227.3;;;;-76
2022/11/12 10:44:57;;;;;;;;;;;;;;;10.34;87.95703;103225.3;;;;-77
2022/11/12 10:50:14;;;;;;;;;;;;;;;10.46;87.36328;103229;;;;-77
2022/11/12 10:55:09;;;;;;;;;;;;;;;10.6;87.1377;103225.9;;;;-79
2022/11/12 11:00:09;;;;;;;;;;;;;;;10.7;86.52637;103216.4;;;;-80
2022/11/12 11:05:04;;;;;;;;;;;;;;;10.79;86.44336;103219.3;;;;-79
2022/11/12 11:05:41;;;;;;;22.9;12.4;;;;;;;;;;;;;-78
2022/11/12 11:10:00;;;;;;;;;;;;;;;10.91;85.94824;103219.8;;;;-78
2022/11/12 11:15:07;;;;;;;;;;;;;;;10.97;85.85059;103223.7;;;;-77
2022/11/12 11:19:56;;;;;;;;;;;;;;;11.08;85.30762;103226.7;;;;-78
2022/11/12 11:25:01;;;;;;;;;;;;;;;11.21;85.25488;103229.2;;;;-77
2022/11/12 11:30:08;;;;;;;;;;;;;;;11.33;85.30078;103228.1;;;;-77
2022/11/12 11:35:05;;;;;;;;;;;;;;;11.43;84.67773;103225.6;;;;-77
2022/11/12 11:35:33;;;;;;;20.5;11.2;;;;;;;;;;;;;-77
2022/11/12 11:40:05;;;;;;;;;;;;;;;11.55;84.43652;103221;;;;-78
2022/11/12 11:44:59;;;;;;;;;;;;;;;11.67;84.66992;103217.8;;;;-79
2022/11/12 11:50:12;;;;;;;;;;;;;;;11.75;84.26465;103214.5;;;;-79
2022/11/12 11:55:01;;;;;;;;;;;;;;;11.85;84.18359;103207.7;;;;-78
2022/11/12 12:00:05;;;;;;;;;;;;;;;11.95;83.81543;103194.5;;;;-77
2022/11/12 12:04:59;;;;;;;;;;;;;;;12.09;83.82031;103187.3;;;;-78
2022/11/12 12:05:36;;;;;;;17.2;10.2;;;;;;;;;;;;;-78
2022/11/12 12:09:59;;;;;;;;;;;;;;;12.22;83.13477;103178.2;;;;-77
2022/11/12 12:15:01;;;;;;;;;;;;;;;12.28;82.8125;103180.9;;;;-77
2022/11/12 12:20:07;;;;;;;;;;;;;;;12.35;83.06836;103174.3;;;;-78
2022/11/12 12:24:59;;;;;;;;;;;;;;;12.5;83.09766;103162.5;;;;-79
2022/11/12 12:30:01;;;;;;;;;;;;;;;12.63;83.02148;103159.7;;;;-78
2022/11/12 12:35:03;;;;;;;;;;;;;;;12.75;82.39941;103153.1;;;;-78
2022/11/12 12:35:37;;;;;;;14.7;8.7;;;;;;;;;;;;;-76
2022/11/12 12:40:01;;;;;;;;;;;;;;;12.82;82.50195;103147.5;;;;-77
2022/11/12 12:45:06;;;;;;;;;;;;;;;12.93;81.7002;103149.7;;;;-78
2022/11/12 12:50:04;;;;;;;;;;;;;;;13;81.56836;103138.5;;;;-78
2022/11/12 12:55:08;;;;;;;;;;;;;;;13.06;81.5459;103132.5;;;;-77
2022/11/12 13:00:06;;;;;;;;;;;;;;;13.07;81.71582;103126.2;;;;-78
2022/11/12 13:04:58;;;;;;;;;;;;;;;13.07;82.01563;103121.7;;;;-78
2022/11/12 13:05:34;;;;;;;12.9;7.7;;;;;;;;;;;;;-78
2022/11/12 13:10:06;;;;;;;;;;;;;;;13.08;82.28516;103104.3;;;;-78
2022/11/12 13:15:08;;;;;;;;;;;;;;;13.13;82.49316;103092.7;;;;-78
2022/11/12 13:20:09;;;;;;;;;;;;;;;13.17;82.22363;103093.9;;;;-77
2022/11/12 13:25:19;;;;;;;;;;;;;;;13.17;81.91211;103090.4;;;;-76
2022/11/12 13:29:56;;;;;;;;;;;;;;;13.14;82.13965;103086.3;;;;-78
2022/11/12 13:35:09;;;;;;;;;;;;;;;13.09;82.12012;103073;;;;-78
2022/11/12 13:35:39;;;;;;;12;6.8;;;;;;;;;;;;;-78
2022/11/12 13:39:56;;;;;;;;;;;;;;;13.06;82.2793;103062;;;;-78
2022/11/12 13:44:56;;;;;;;;;;;;;;;13.03;82.53027;103055.8;;;;-79
2022/11/12 13:50:00;;;;;;;;;;;;;;;13;82.78125;103062.1;;;;-74
2022/11/12 13:55:03;;;;;;;;;;;;;;;12.94;82.75977;103063.4;;;;-74
2022/11/12 14:00:09;;;;;;;;;;;;;;;12.88;82.61426;103061.5;;;;-74
2022/11/12 14:04:58;;;;;;;;;;;;;;;12.8;82.4873;103051.5;;;;-74
2022/11/12 14:05:38;;;;;;;11.5;6.2;;;;;;;;;;;;;-73
2022/11/12 14:10:04;;;;;;;;;;;;;;;12.78;82.89551;103052.4;;;;-73
2022/11/12 14:15:05;;;;;;;;;;;;;;;12.75;82.95508;103048.8;;;;-74
2022/11/12 14:20:06;;;;;;;;;;;;;;;12.71;83.11328;103047.2;;;;-74
2022/11/12 14:25:01;;;;;;;;;;;;;;;12.63;83.54395;103046.8;;;;-77
2022/11/12 14:30:06;;;;;;;;;;;;;;;12.56;83.41895;103053.6;;;;-78
2022/11/12 14:34:56;;;;;;;;;;;;;;;12.52;84.97949;103054;;;;-76
2022/11/12 14:35:41;;;;;;;10.4;5.8;;;;;;;;;;;;;-77
2022/11/12 14:40:04;;;;;;;;;;;;;;;12.53;83.74707;103048.7;;;;-75
2022/11/12 14:44:59;;;;;;;;;;;;;;;12.36;85.33594;103049.4;;;;-74
2022/11/12 14:49:59;;;;;;;;;;;;;;;12.26;85.94629;103052.7;;;;-74
2022/11/12 14:55:00;;;;;;;;;;;;;;;12.17;86.71582;103052.1;;;;-73
2022/11/12 14:59:57;;;;;;;;;;;;;;;12.08;87.07422;103049.4;;;;-72
2022/11/12 15:05:02;;;;;;;;;;;;;;;11.99;87.16895;103043.3;;;;-73
2022/11/12 15:05:49;;;;;;;10.2;5.9;;;;;;;;;;;;;-74
2022/11/12 15:09:57;;;;;;;;;;;;;;;11.89;87.50391;103038.1;;;;-75
2022/11/12 15:15:07;;;;;;;;;;;;;;;11.82;87.02441;103035;;;;-73
2022/11/12 15:20:04;;;;;;;;;;;;;;;11.71;87.6543;103037.6;;;;-74
2022/11/12 15:24:57;;;;;;;;;;;;;;;11.6;87.87793;103035.1;;;;-75
2022/11/12 15:30:07;;;;;;;;;;;;;;;11.5;88.0127;103033.1;;;;-73
2022/11/12 15:34:59;;;;;;;;;;;;;;;11.4;88.06934;103035.2;;;;-74
2022/11/12 15:35:44;;;;;;;12;6.2;;;;;;;;;;;;;-73
2022/11/12 15:40:00;;;;;;;;;;;;;;;11.3;88.32813;103035.2;;;;-73
2022/11/12 15:45:06;;;;;;;;;;;;;;;11.2;88.55957;103036.1;;;;-73
2022/11/12 15:49:57;;;;;;;;;;;;;;;11.1;88.70605;103037;;;;-74
2022/11/12 15:54:57;;;;;;;;;;;;;;;10.99;89.00586;103041.9;;;;-73
2022/11/12 16:00:00;;;;;;;;;;;;;;;10.89;89.07227;103047.7;;;;-73
2022/11/12 16:05:02;;;;;;;;;;;;;;;10.79;89.22656;103037.9;;;;-74
2022/11/12 16:05:41;;;;;;;11.2;6.6;;;;;;;;;;;;;-74
2022/11/12 16:09:59;;;;;;;;;;;;;;;10.69;89.31641;103034.2;;;;-74
2022/11/12 16:15:00;;;;;;;;;;;;;;;10.6;89.41211;103034.1;;;;-75
2022/11/12 16:19:57;;;;;;;;;;;;;;;10.49;89.43359;103033.2;;;;-75
2022/11/12 16:24:58;;;;;;;;;;;;;;;10.42;89.35059;103028.6;;;;-73
2022/11/12 16:29:59;;;;;;;;;;;;;;;10.33;89.55469;103018;;;;-73
2022/11/12 16:34:56;;;;;;;;;;;;;;;10.27;89.67188;103029.5;;;;-76
2022/11/12 16:35:42;;;;;;;12.7;7.1;;;;;;;;;;;;;-74
2022/11/12 16:39:59;;;;;;;;;;;;;;;10.19;89.65527;103033.2;;;;-74
2022/11/12 16:45:01;;;;;;;;;;;;;;;10.11;89.60938;103030.8;;;;-74
2022/11/12 16:50:11;;;;;;;;;;;;;;;;;;;;;
2022/11/12 16:54:59;;;;;;;;;;;;;;;9.99;89.72656;103023.6;;;;-77
2022/11/12 16:59:57;;;;;;;;;;;;;;;9.93;89.6709;103008.3;;;;-76
2022/11/12 17:04:57;;;;;;;;;;;;;;;9.88;89.72754;103009.2;;;;-77
2022/11/12 17:05:53;;;;;;;12.7;7.2;;;;;;;;;;;;;-76
2022/11/12 17:09:57;;;;;;;;;;;;;;;9.83;89.84863;103006.3;;;;-78
2022/11/12 17:15:14;;;;;;;;;;;;;;;9.81;89.7666;103003.1;;;;-77
2022/11/12 17:20:01;;;;;;;;;;;;;;;9.76;89.73438;103009;;;;-77
2022/11/12 17:24:56;;;;;;;;;;;;;;;9.71;89.38184;103019.3;;;;-78
2022/11/12 17:29:56;;;;;;;;;;;;;;;9.67;89.73828;103021.8;;;;-78
2022/11/12 17:34:56;;;;;;;;;;;;;;;9.62;89.10156;103020.4;;;;-79
2022/11/12 17:35:50;;;;;;;13.2;7.2;;;;;;;;;;;;;-77
2022/11/12 17:40:08;;;;;;;;;;;;;;;9.54;88.92871;103022.4;;;;-78
2022/11/12 17:44:58;;;;;;;;;;;;;;;9.48;89.41504;103024.9;;;;-78
2022/11/12 17:49:56;;;;;;;;;;;;;;;9.41;89.10059;103018.1;;;;-78
2022/11/12 17:54:56;;;;;;;;;;;;;;;9.35;89.46191;103012.9;;;;-79
2022/11/12 17:59:56;;;;;;;;;;;;;;;9.26;89.16992;103016;;;;-78
2022/11/12 18:04:59;;;;;;;;;;;;;;;9.2;89.30176;103021;;;;-79
2022/11/12 18:05:46;;;;;;;11.6;6.9;;;;;;;;;;;;;-78
2022/11/12 18:09:56;;;;;;;;;;;;;;;9.12;89.51465;103022.2;;;;-78
2022/11/12 18:14:56;;;;;;;;;;;;;;;9.04;89.76172;103011.4;;;;-78
2022/11/12 18:19:57;;;;;;;;;;;;;;;8.98;89.36719;103013.7;;;;-79
2022/11/12 18:24:56;;;;;;;;;;;;;;;8.96;89.57031;103011.6;;;;-78
2022/11/12 18:29:56;;;;;;;;;;;;;;;8.93;89.24609;103005.6;;;;-78
2022/11/12 18:35:02;;;;;;;;;;;;;;;8.87;89.53027;103005.2;;;;-81
2022/11/12 18:35:53;;;;;;;13.5;6.9;;;;;;;;;;;;;-78
2022/11/12 18:39:56;;;;;;;;;;;;;;;8.86;89.58301;103007.8;;;;-79
2022/11/12 18:44:59;;;;;;;;;;;;;;;8.79;89.7002;103013.8;;;;-78
2022/11/12 19:04:14;;;;;;;;;;;;;;;8.74;89.78906;102989.1;;;;-75
2022/11/12 19:06:15;;;;;;;;;;;;;;;8.82;89.75098;102991.7;;;;-76
2022/11/12 19:25:37;;;;;;;;;;;;;;;;;;;;;
2022/11/12 19:36:35;;;;;;;13.2;7.2;;;;;;;;;;;;;-73
2022/11/12 19:41:05;;;;;;;;;;;;;;;8.62;89.54492;103004.4;;;;-75
2022/11/12 19:43:49;;;;;;;;;;;;;;;8.51;89.67676;103005.3;;;;-76
2022/11/12 19:49:16;;;;;;;;;;;;;;;8.45;89.52051;103000.5;;;;-77
2022/11/12 20:03:46;;;;;;;;;;;;;;;8.36;89.60254;102991.9;;;;-76
2022/11/12 20:26:19;;;;;;;;;;;;;;;8.33;89.48535;102983.8;;;;-77
2022/11/12 21:01:17;;;;;;;;;;;;;;;8;89.85547;102975.9;;;;-76
2022/11/12 21:29:23;;;;;;;;;;;;;;;7.86;89.73926;102972.8;;;;-77
2022/11/12 21:34:54;;;;;;;;;;;;;;;7.93;89.74316;102972.6;;;;-77
2022/11/12 22:05:53;;;;;;;;;;;;;;;7.77;89.4707;102955.8;;;;-76
2022/11/12 22:06:27;;;;;;;13;7;;;;;;;;;;;;;-76
2022/11/12 22:10:02;;;;;;;;;;;;;;;7.58;89.87988;102953.1;;;;-76
2022/11/12 22:10:42;;;;;;;;;;;;;;;7.66;89.875;102954.6;;;;-77
2022/11/12 22:15:33;;;;;;;;;;;;;;;7.53;89.94434;102955.9;;;;-77
2022/11/12 22:26:24;;;;;;;;;;;;;;;7.47;89.79004;102955.5;;;;-76
2022/11/12 22:29:10;;;;;;;;;;;;;;;7.37;89.71484;102954.6;;;;-76
2022/11/12 22:34:19;;;;;;;;;;;;;;;7.31;89.72559;102952.3;;;;-77
2022/11/12 22:36:02;;;;;;;13.1;7;;;;;;;;;;;;;-77
2022/11/12 22:39:16;;;;;;;;;;;;;;;7.26;89.9873;102948.9;;;;-77
2022/11/12 22:43:31;;;;;;;;;;;;;;;;;;;;;
2022/11/12 22:47:31;;;;;;;;;;;;;;;7.17;89.91406;102929.4;;;;-77
2022/11/12 22:57:43;;;;;;;;;;;;;;;;;;;;;
2022/11/12 23:02:31;;;;;;;;;;;;;;;7.14;90.01758;102918.6;;;;-77
2022/11/12 23:06:16;;;;;;;16;7.3;;;;;;;;;;;;;-76
2022/11/12 23:07:28;;;;;;;;;;;;;;;7.18;89.91602;102914.4;;;;-77
2022/11/12 23:23:55;;;;;;;;;;;;;;;7.3;89.64648;102894.2;;;;-76
2022/11/12 23:27:26;;;;;;;;;;;;;;;;;;;;;
2022/11/12 23:35:13;;;;;;;;;;;;;;;7.2;90.2041;102898.8;;;;-77
2022/11/12 23:40:27;;;;;;;;;;;;;;;7.19;89.98535;102901.7;;;;-77
2022/11/12 23:51:08;;;;;;;;;;;;;;;7.21;89.92383;102897;;;;-77
2022/11/12 23:56:31;;;;;;;;;;;;;;;;;;;;;
